sensor_id;sensor_type;location;lat;lon;timestamp;P1;durP1;ratioP1;P2;durP2;ratioP2
10617;SDS011;5356;43.526;26.534;2024-02-21T00:00:12;30.90;;;13.82;;
10617;SDS011;5356;43.526;26.534;2024-02-21T00:02:38;31.63;;;16.33;;
10617;SDS011;5356;43.526;26.534;2024-02-21T00:05:04;29.10;;;14.18;;
10617;SDS011;5356;43.526;26.534;2024-02-21T00:07:29;27.33;;;14.13;;
10617;SDS011;5356;43.526;26.534;2024-02-21T00:09:55;29.50;;;14.25;;
10617;SDS011;5356;43.526;26.534;2024-02-21T00:12:21;23.60;;;12.73;;
10617;SDS011;5356;43.526;26.534;2024-02-21T00:14:46;27.88;;;14.32;;
10617;SDS011;5356;43.526;26.534;2024-02-21T00:17:12;28.27;;;12.82;;
10617;SDS011;5356;43.526;26.534;2024-02-21T00:19:37;28.25;;;13.98;;
10617;SDS011;5356;43.526;26.534;2024-02-21T00:22:03;28.38;;;14.82;;
10617;SDS011;5356;43.526;26.534;2024-02-21T00:24:29;26.70;;;14.52;;
10617;SDS011;5356;43.526;26.534;2024-02-21T00:26:55;28.30;;;13.60;;
10617;SDS011;5356;43.526;26.534;2024-02-21T00:29:20;29.25;;;13.60;;
10617;SDS011;5356;43.526;26.534;2024-02-21T00:31:45;31.00;;;14.18;;
10617;SDS011;5356;43.526;26.534;2024-02-21T00:34:11;27.55;;;13.27;;
10617;SDS011;5356;43.526;26.534;2024-02-21T00:36:38;29.52;;;15.57;;
10617;SDS011;5356;43.526;26.534;2024-02-21T00:39:03;27.70;;;12.73;;
10617;SDS011;5356;43.526;26.534;2024-02-21T00:41:29;28.80;;;13.98;;
10617;SDS011;5356;43.526;26.534;2024-02-21T00:43:54;22.23;;;11.45;;
10617;SDS011;5356;43.526;26.534;2024-02-21T00:46:20;35.17;;;13.88;;
10617;SDS011;5356;43.526;26.534;2024-02-21T00:48:45;30.92;;;14.25;;
10617;SDS011;5356;43.526;26.534;2024-02-21T00:51:11;29.90;;;14.35;;
10617;SDS011;5356;43.526;26.534;2024-02-21T00:53:36;33.60;;;14.50;;
10617;SDS011;5356;43.526;26.534;2024-02-21T00:56:04;26.85;;;14.70;;
10617;SDS011;5356;43.526;26.534;2024-02-21T00:58:30;27.15;;;13.27;;
10617;SDS011;5356;43.526;26.534;2024-02-21T01:00:56;36.50;;;15.73;;
10617;SDS011;5356;43.526;26.534;2024-02-21T01:03:21;30.25;;;13.80;;
10617;SDS011;5356;43.526;26.534;2024-02-21T01:05:47;31.10;;;14.30;;
10617;SDS011;5356;43.526;26.534;2024-02-21T01:08:12;31.15;;;15.73;;
10617;SDS011;5356;43.526;26.534;2024-02-21T01:10:38;32.67;;;15.63;;
10617;SDS011;5356;43.526;26.534;2024-02-21T01:13:03;28.42;;;14.05;;
10617;SDS011;5356;43.526;26.534;2024-02-21T01:15:28;29.75;;;14.90;;
10617;SDS011;5356;43.526;26.534;2024-02-21T01:17:54;29.98;;;15.05;;
10617;SDS011;5356;43.526;26.534;2024-02-21T01:20:20;28.00;;;12.95;;
10617;SDS011;5356;43.526;26.534;2024-02-21T01:22:46;30.08;;;15.07;;
10617;SDS011;5356;43.526;26.534;2024-02-21T01:25:12;29.63;;;14.23;;
10617;SDS011;5356;43.526;26.534;2024-02-21T01:27:37;32.45;;;14.48;;
10617;SDS011;5356;43.526;26.534;2024-02-21T01:30:03;27.92;;;13.30;;
10617;SDS011;5356;43.526;26.534;2024-02-21T01:32:29;30.90;;;14.57;;
10617;SDS011;5356;43.526;26.534;2024-02-21T01:34:54;25.65;;;13.30;;
10617;SDS011;5356;43.526;26.534;2024-02-21T01:37:20;29.20;;;13.98;;
10617;SDS011;5356;43.526;26.534;2024-02-21T01:39:46;31.40;;;14.70;;
10617;SDS011;5356;43.526;26.534;2024-02-21T01:42:12;28.45;;;14.05;;
10617;SDS011;5356;43.526;26.534;2024-02-21T01:44:37;26.75;;;13.85;;
10617;SDS011;5356;43.526;26.534;2024-02-21T01:47:03;31.67;;;14.25;;
10617;SDS011;5356;43.526;26.534;2024-02-21T01:49:28;28.70;;;14.65;;
10617;SDS011;5356;43.526;26.534;2024-02-21T01:51:55;37.85;;;17.15;;
10617;SDS011;5356;43.526;26.534;2024-02-21T01:54:21;35.40;;;17.40;;
10617;SDS011;5356;43.526;26.534;2024-02-21T01:56:47;35.88;;;16.90;;
10617;SDS011;5356;43.526;26.534;2024-02-21T01:59:13;34.92;;;15.90;;
10617;SDS011;5356;43.526;26.534;2024-02-21T02:01:41;30.67;;;16.10;;
10617;SDS011;5356;43.526;26.534;2024-02-21T02:04:07;32.20;;;14.77;;
10617;SDS011;5356;43.526;26.534;2024-02-21T02:06:33;32.25;;;16.35;;
10617;SDS011;5356;43.526;26.534;2024-02-21T02:08:59;31.23;;;14.90;;
10617;SDS011;5356;43.526;26.534;2024-02-21T02:11:25;26.05;;;13.50;;
10617;SDS011;5356;43.526;26.534;2024-02-21T02:13:50;24.00;;;12.95;;
10617;SDS011;5356;43.526;26.534;2024-02-21T02:16:16;29.67;;;13.70;;
10617;SDS011;5356;43.526;26.534;2024-02-21T02:18:41;25.45;;;12.30;;
10617;SDS011;5356;43.526;26.534;2024-02-21T02:21:09;25.90;;;12.93;;
10617;SDS011;5356;43.526;26.534;2024-02-21T02:23:39;28.10;;;13.73;;
10617;SDS011;5356;43.526;26.534;2024-02-21T02:26:05;27.77;;;13.30;;
10617;SDS011;5356;43.526;26.534;2024-02-21T02:28:32;29.50;;;13.93;;
10617;SDS011;5356;43.526;26.534;2024-02-21T02:30:58;33.88;;;15.93;;
10617;SDS011;5356;43.526;26.534;2024-02-21T02:33:23;35.30;;;17.45;;
10617;SDS011;5356;43.526;26.534;2024-02-21T02:35:49;35.05;;;17.38;;
10617;SDS011;5356;43.526;26.534;2024-02-21T02:38:14;32.92;;;16.30;;
10617;SDS011;5356;43.526;26.534;2024-02-21T02:40:40;29.50;;;15.00;;
10617;SDS011;5356;43.526;26.534;2024-02-21T02:43:06;30.67;;;15.93;;
10617;SDS011;5356;43.526;26.534;2024-02-21T02:45:32;29.33;;;14.70;;
10617;SDS011;5356;43.526;26.534;2024-02-21T02:47:57;30.90;;;15.65;;
10617;SDS011;5356;43.526;26.534;2024-02-21T02:50:23;27.23;;;14.13;;
10617;SDS011;5356;43.526;26.534;2024-02-21T02:52:49;70.55;;;30.27;;
10617;SDS011;5356;43.526;26.534;2024-02-21T02:55:15;194.50;;;68.55;;
10617;SDS011;5356;43.526;26.534;2024-02-21T02:57:41;69.07;;;32.45;;
10617;SDS011;5356;43.526;26.534;2024-02-21T03:00:07;38.53;;;19.35;;
10617;SDS011;5356;43.526;26.534;2024-02-21T03:02:34;34.42;;;18.95;;
10617;SDS011;5356;43.526;26.534;2024-02-21T03:05:00;35.20;;;17.83;;
10617;SDS011;5356;43.526;26.534;2024-02-21T03:07:26;30.90;;;16.98;;
10617;SDS011;5356;43.526;26.534;2024-02-21T03:09:51;29.30;;;16.48;;
10617;SDS011;5356;43.526;26.534;2024-02-21T03:12:18;29.90;;;15.30;;
10617;SDS011;5356;43.526;26.534;2024-02-21T03:14:49;33.47;;;14.70;;
10617;SDS011;5356;43.526;26.534;2024-02-21T03:17:15;28.83;;;13.30;;
10617;SDS011;5356;43.526;26.534;2024-02-21T03:19:41;28.45;;;13.15;;
10617;SDS011;5356;43.526;26.534;2024-02-21T03:22:07;27.80;;;13.70;;
10617;SDS011;5356;43.526;26.534;2024-02-21T03:24:32;31.33;;;14.82;;
10617;SDS011;5356;43.526;26.534;2024-02-21T03:26:58;32.90;;;15.23;;
10617;SDS011;5356;43.526;26.534;2024-02-21T03:29:24;44.20;;;20.90;;
10617;SDS011;5356;43.526;26.534;2024-02-21T03:31:50;50.65;;;26.33;;
10617;SDS011;5356;43.526;26.534;2024-02-21T03:34:15;37.20;;;19.95;;
10617;SDS011;5356;43.526;26.534;2024-02-21T03:36:41;39.05;;;23.10;;
10617;SDS011;5356;43.526;26.534;2024-02-21T03:39:06;34.33;;;19.58;;
10617;SDS011;5356;43.526;26.534;2024-02-21T03:41:34;33.30;;;16.27;;
10617;SDS011;5356;43.526;26.534;2024-02-21T03:44:00;31.85;;;16.17;;
10617;SDS011;5356;43.526;26.534;2024-02-21T03:46:25;27.13;;;14.77;;
10617;SDS011;5356;43.526;26.534;2024-02-21T03:48:51;28.95;;;13.90;;
10617;SDS011;5356;43.526;26.534;2024-02-21T03:51:16;28.27;;;14.45;;
10617;SDS011;5356;43.526;26.534;2024-02-21T03:53:42;32.67;;;14.27;;
10617;SDS011;5356;43.526;26.534;2024-02-21T03:56:08;30.55;;;14.38;;
10617;SDS011;5356;43.526;26.534;2024-02-21T03:58:33;32.35;;;14.40;;
10617;SDS011;5356;43.526;26.534;2024-02-21T04:01:03;38.75;;;15.77;;
10617;SDS011;5356;43.526;26.534;2024-02-21T04:03:28;34.50;;;15.38;;
10617;SDS011;5356;43.526;26.534;2024-02-21T04:05:55;36.13;;;16.60;;
10617;SDS011;5356;43.526;26.534;2024-02-21T04:08:22;46.85;;;20.17;;
10617;SDS011;5356;43.526;26.534;2024-02-21T04:10:47;43.97;;;19.73;;
10617;SDS011;5356;43.526;26.534;2024-02-21T04:13:13;39.65;;;18.23;;
10617;SDS011;5356;43.526;26.534;2024-02-21T04:15:38;33.08;;;15.95;;
10617;SDS011;5356;43.526;26.534;2024-02-21T04:18:04;31.55;;;15.10;;
10617;SDS011;5356;43.526;26.534;2024-02-21T04:20:29;30.95;;;14.38;;
10617;SDS011;5356;43.526;26.534;2024-02-21T04:22:56;34.90;;;16.33;;
10617;SDS011;5356;43.526;26.534;2024-02-21T04:25:21;37.47;;;21.15;;
10617;SDS011;5356;43.526;26.534;2024-02-21T04:27:47;48.25;;;23.75;;
10617;SDS011;5356;43.526;26.534;2024-02-21T04:30:12;33.97;;;17.38;;
10617;SDS011;5356;43.526;26.534;2024-02-21T04:32:38;34.22;;;15.80;;
10617;SDS011;5356;43.526;26.534;2024-02-21T04:35:04;48.35;;;26.65;;
10617;SDS011;5356;43.526;26.534;2024-02-21T04:37:30;32.53;;;17.35;;
10617;SDS011;5356;43.526;26.534;2024-02-21T04:39:56;31.70;;;16.05;;
10617;SDS011;5356;43.526;26.534;2024-02-21T04:42:21;30.92;;;15.80;;
10617;SDS011;5356;43.526;26.534;2024-02-21T04:44:47;34.30;;;16.70;;
10617;SDS011;5356;43.526;26.534;2024-02-21T04:47:12;35.28;;;18.05;;
10617;SDS011;5356;43.526;26.534;2024-02-21T04:49:38;41.22;;;17.52;;
10617;SDS011;5356;43.526;26.534;2024-02-21T04:52:05;34.00;;;17.55;;
10617;SDS011;5356;43.526;26.534;2024-02-21T04:54:30;38.50;;;19.00;;
10617;SDS011;5356;43.526;26.534;2024-02-21T04:56:56;37.72;;;18.00;;
10617;SDS011;5356;43.526;26.534;2024-02-21T04:59:22;39.17;;;18.50;;
10617;SDS011;5356;43.526;26.534;2024-02-21T05:01:47;38.20;;;17.52;;
10617;SDS011;5356;43.526;26.534;2024-02-21T05:04:13;35.33;;;16.75;;
10617;SDS011;5356;43.526;26.534;2024-02-21T05:06:38;33.08;;;17.05;;
10617;SDS011;5356;43.526;26.534;2024-02-21T05:09:05;34.22;;;15.90;;
10617;SDS011;5356;43.526;26.534;2024-02-21T05:11:31;41.33;;;20.55;;
10617;SDS011;5356;43.526;26.534;2024-02-21T05:13:57;37.17;;;16.40;;
10617;SDS011;5356;43.526;26.534;2024-02-21T05:16:22;36.50;;;17.65;;
10617;SDS011;5356;43.526;26.534;2024-02-21T05:18:48;39.35;;;16.17;;
10617;SDS011;5356;43.526;26.534;2024-02-21T05:21:14;33.92;;;17.77;;
10617;SDS011;5356;43.526;26.534;2024-02-21T05:23:39;34.03;;;17.30;;
10617;SDS011;5356;43.526;26.534;2024-02-21T05:26:05;27.92;;;14.70;;
10617;SDS011;5356;43.526;26.534;2024-02-21T05:28:31;32.40;;;16.95;;
10617;SDS011;5356;43.526;26.534;2024-02-21T05:30:56;36.92;;;16.35;;
10617;SDS011;5356;43.526;26.534;2024-02-21T05:33:22;38.70;;;20.00;;
10617;SDS011;5356;43.526;26.534;2024-02-21T05:35:47;41.78;;;19.42;;
10617;SDS011;5356;43.526;26.534;2024-02-21T05:38:13;37.20;;;19.45;;
10617;SDS011;5356;43.526;26.534;2024-02-21T05:40:39;35.83;;;18.92;;
10617;SDS011;5356;43.526;26.534;2024-02-21T05:43:06;37.05;;;17.38;;
10617;SDS011;5356;43.526;26.534;2024-02-21T05:45:32;31.67;;;14.20;;
10617;SDS011;5356;43.526;26.534;2024-02-21T05:47:58;37.10;;;21.15;;
10617;SDS011;5356;43.526;26.534;2024-02-21T05:50:23;36.35;;;18.77;;
10617;SDS011;5356;43.526;26.534;2024-02-21T05:52:52;32.58;;;14.43;;
10617;SDS011;5356;43.526;26.534;2024-02-21T05:55:19;33.40;;;15.57;;
10617;SDS011;5356;43.526;26.534;2024-02-21T05:57:44;28.33;;;15.05;;
10617;SDS011;5356;43.526;26.534;2024-02-21T06:00:10;31.60;;;14.55;;
10617;SDS011;5356;43.526;26.534;2024-02-21T06:02:35;39.38;;;17.83;;
10617;SDS011;5356;43.526;26.534;2024-02-21T06:05:01;40.03;;;20.23;;
10617;SDS011;5356;43.526;26.534;2024-02-21T06:07:26;39.50;;;16.98;;
10617;SDS011;5356;43.526;26.534;2024-02-21T06:09:52;32.53;;;16.02;;
10617;SDS011;5356;43.526;26.534;2024-02-21T06:12:17;37.28;;;16.15;;
10617;SDS011;5356;43.526;26.534;2024-02-21T06:14:43;39.30;;;16.98;;
10617;SDS011;5356;43.526;26.534;2024-02-21T06:17:08;30.67;;;16.35;;
10617;SDS011;5356;43.526;26.534;2024-02-21T06:19:34;29.80;;;15.90;;
10617;SDS011;5356;43.526;26.534;2024-02-21T06:21:59;31.05;;;14.98;;
10617;SDS011;5356;43.526;26.534;2024-02-21T06:24:25;43.03;;;21.20;;
10617;SDS011;5356;43.526;26.534;2024-02-21T06:26:50;41.08;;;21.77;;
10617;SDS011;5356;43.526;26.534;2024-02-21T06:29:15;45.15;;;21.85;;
10617;SDS011;5356;43.526;26.534;2024-02-21T06:31:41;33.00;;;16.52;;
10617;SDS011;5356;43.526;26.534;2024-02-21T06:34:06;34.75;;;16.33;;
10617;SDS011;5356;43.526;26.534;2024-02-21T06:36:32;37.63;;;17.83;;
10617;SDS011;5356;43.526;26.534;2024-02-21T06:38:58;36.05;;;17.27;;
10617;SDS011;5356;43.526;26.534;2024-02-21T06:41:24;38.60;;;18.20;;
10617;SDS011;5356;43.526;26.534;2024-02-21T06:43:50;53.58;;;23.45;;
10617;SDS011;5356;43.526;26.534;2024-02-21T06:46:26;50.97;;;22.80;;
10617;SDS011;5356;43.526;26.534;2024-02-21T06:48:53;47.08;;;19.52;;
10617;SDS011;5356;43.526;26.534;2024-02-21T06:51:21;41.80;;;20.25;;
10617;SDS011;5356;43.526;26.534;2024-02-21T06:53:47;39.08;;;19.70;;
10617;SDS011;5356;43.526;26.534;2024-02-21T06:56:12;44.90;;;21.20;;
10617;SDS011;5356;43.526;26.534;2024-02-21T06:58:38;38.33;;;19.55;;
10617;SDS011;5356;43.526;26.534;2024-02-21T07:01:03;41.85;;;18.85;;
10617;SDS011;5356;43.526;26.534;2024-02-21T07:03:28;37.47;;;17.65;;
10617;SDS011;5356;43.526;26.534;2024-02-21T07:05:54;34.17;;;17.15;;
10617;SDS011;5356;43.526;26.534;2024-02-21T07:08:19;33.72;;;15.88;;
10617;SDS011;5356;43.526;26.534;2024-02-21T07:10:45;39.88;;;17.23;;
10617;SDS011;5356;43.526;26.534;2024-02-21T07:13:10;31.25;;;16.13;;
10617;SDS011;5356;43.526;26.534;2024-02-21T07:15:36;37.00;;;17.05;;
10617;SDS011;5356;43.526;26.534;2024-02-21T07:18:02;38.30;;;18.83;;
10617;SDS011;5356;43.526;26.534;2024-02-21T07:20:28;35.55;;;16.90;;
10617;SDS011;5356;43.526;26.534;2024-02-21T07:22:54;33.63;;;17.85;;
10617;SDS011;5356;43.526;26.534;2024-02-21T07:25:19;33.08;;;18.10;;
10617;SDS011;5356;43.526;26.534;2024-02-21T07:27:45;35.58;;;17.73;;
10617;SDS011;5356;43.526;26.534;2024-02-21T07:30:10;32.13;;;17.05;;
10617;SDS011;5356;43.526;26.534;2024-02-21T07:32:36;33.47;;;17.02;;
10617;SDS011;5356;43.526;26.534;2024-02-21T07:35:01;32.80;;;16.58;;
10617;SDS011;5356;43.526;26.534;2024-02-21T07:37:27;31.75;;;14.63;;
10617;SDS011;5356;43.526;26.534;2024-02-21T07:39:52;29.73;;;15.70;;
10617;SDS011;5356;43.526;26.534;2024-02-21T07:42:18;30.73;;;15.07;;
10617;SDS011;5356;43.526;26.534;2024-02-21T07:44:43;35.88;;;15.77;;
10617;SDS011;5356;43.526;26.534;2024-02-21T07:47:09;45.33;;;20.05;;
10617;SDS011;5356;43.526;26.534;2024-02-21T07:49:42;39.67;;;18.60;;
10617;SDS011;5356;43.526;26.534;2024-02-21T07:52:11;40.17;;;18.20;;
10617;SDS011;5356;43.526;26.534;2024-02-21T07:54:36;54.85;;;26.92;;
10617;SDS011;5356;43.526;26.534;2024-02-21T07:57:02;93.10;;;41.40;;
10617;SDS011;5356;43.526;26.534;2024-02-21T07:59:28;63.10;;;30.08;;
10617;SDS011;5356;43.526;26.534;2024-02-21T08:01:57;53.30;;;29.90;;
10617;SDS011;5356;43.526;26.534;2024-02-21T08:04:23;62.90;;;28.27;;
10617;SDS011;5356;43.526;26.534;2024-02-21T08:06:52;48.10;;;23.20;;
10617;SDS011;5356;43.526;26.534;2024-02-21T08:09:19;48.20;;;26.30;;
10617;SDS011;5356;43.526;26.534;2024-02-21T08:11:44;47.53;;;23.17;;
10617;SDS011;5356;43.526;26.534;2024-02-21T08:14:10;43.00;;;21.02;;
10617;SDS011;5356;43.526;26.534;2024-02-21T08:16:35;41.65;;;20.90;;
10617;SDS011;5356;43.526;26.534;2024-02-21T08:19:01;39.25;;;20.23;;
10617;SDS011;5356;43.526;26.534;2024-02-21T08:21:28;34.08;;;18.88;;
10617;SDS011;5356;43.526;26.534;2024-02-21T08:23:53;32.83;;;18.30;;
10617;SDS011;5356;43.526;26.534;2024-02-21T08:26:20;34.83;;;17.35;;
10617;SDS011;5356;43.526;26.534;2024-02-21T08:28:45;32.05;;;18.45;;
10617;SDS011;5356;43.526;26.534;2024-02-21T08:31:11;34.05;;;18.63;;
10617;SDS011;5356;43.526;26.534;2024-02-21T08:33:43;35.83;;;20.75;;
10617;SDS011;5356;43.526;26.534;2024-02-21T08:36:08;32.20;;;15.05;;
10617;SDS011;5356;43.526;26.534;2024-02-21T08:38:34;34.50;;;15.27;;
10617;SDS011;5356;43.526;26.534;2024-02-21T08:40:59;34.10;;;16.00;;
10617;SDS011;5356;43.526;26.534;2024-02-21T08:43:25;28.73;;;14.68;;
10617;SDS011;5356;43.526;26.534;2024-02-21T08:45:50;30.77;;;16.92;;
10617;SDS011;5356;43.526;26.534;2024-02-21T08:48:16;34.03;;;16.73;;
10617;SDS011;5356;43.526;26.534;2024-02-21T08:50:41;33.35;;;16.48;;
10617;SDS011;5356;43.526;26.534;2024-02-21T08:53:07;35.60;;;18.63;;
10617;SDS011;5356;43.526;26.534;2024-02-21T08:55:32;34.20;;;19.15;;
10617;SDS011;5356;43.526;26.534;2024-02-21T08:57:57;35.58;;;18.38;;
10617;SDS011;5356;43.526;26.534;2024-02-21T09:00:23;29.38;;;15.55;;
10617;SDS011;5356;43.526;26.534;2024-02-21T09:02:52;29.77;;;16.92;;
10617;SDS011;5356;43.526;26.534;2024-02-21T09:05:17;29.63;;;15.38;;
10617;SDS011;5356;43.526;26.534;2024-02-21T09:07:43;34.50;;;17.70;;
10617;SDS011;5356;43.526;26.534;2024-02-21T09:10:09;38.15;;;19.30;;
10617;SDS011;5356;43.526;26.534;2024-02-21T09:12:34;47.40;;;19.08;;
10617;SDS011;5356;43.526;26.534;2024-02-21T09:14:59;31.88;;;17.20;;
10617;SDS011;5356;43.526;26.534;2024-02-21T09:17:25;27.67;;;16.27;;
10617;SDS011;5356;43.526;26.534;2024-02-21T09:19:51;46.20;;;19.85;;
10617;SDS011;5356;43.526;26.534;2024-02-21T09:22:16;30.08;;;15.45;;
10617;SDS011;5356;43.526;26.534;2024-02-21T09:24:42;27.10;;;14.75;;
10617;SDS011;5356;43.526;26.534;2024-02-21T09:27:07;27.70;;;14.20;;
10617;SDS011;5356;43.526;26.534;2024-02-21T09:29:33;24.77;;;14.35;;
10617;SDS011;5356;43.526;26.534;2024-02-21T09:31:59;38.10;;;16.08;;
10617;SDS011;5356;43.526;26.534;2024-02-21T09:34:24;35.78;;;18.13;;
10617;SDS011;5356;43.526;26.534;2024-02-21T09:36:50;25.80;;;15.15;;
10617;SDS011;5356;43.526;26.534;2024-02-21T09:39:15;26.60;;;14.63;;
10617;SDS011;5356;43.526;26.534;2024-02-21T09:41:45;27.73;;;15.63;;
10617;SDS011;5356;43.526;26.534;2024-02-21T09:44:17;25.63;;;16.23;;
10617;SDS011;5356;43.526;26.534;2024-02-21T09:49:32;27.05;;;15.20;;
10617;SDS011;5356;43.526;26.534;2024-02-21T09:52:01;23.75;;;13.70;;
10617;SDS011;5356;43.526;26.534;2024-02-21T09:54:29;25.65;;;14.68;;
10617;SDS011;5356;43.526;26.534;2024-02-21T09:56:57;22.23;;;13.02;;
10617;SDS011;5356;43.526;26.534;2024-02-21T09:59:23;23.38;;;13.02;;
10617;SDS011;5356;43.526;26.534;2024-02-21T10:01:49;25.50;;;13.05;;
10617;SDS011;5356;43.526;26.534;2024-02-21T10:04:16;24.02;;;13.00;;
10617;SDS011;5356;43.526;26.534;2024-02-21T10:06:41;23.98;;;14.43;;
10617;SDS011;5356;43.526;26.534;2024-02-21T10:09:07;21.63;;;13.00;;
10617;SDS011;5356;43.526;26.534;2024-02-21T10:11:33;22.60;;;12.32;;
10617;SDS011;5356;43.526;26.534;2024-02-21T10:14:05;27.33;;;13.95;;
10617;SDS011;5356;43.526;26.534;2024-02-21T10:16:31;22.00;;;12.73;;
10617;SDS011;5356;43.526;26.534;2024-02-21T10:18:58;23.73;;;13.60;;
10617;SDS011;5356;43.526;26.534;2024-02-21T10:21:24;20.48;;;11.07;;
10617;SDS011;5356;43.526;26.534;2024-02-21T10:23:49;20.65;;;11.77;;
10617;SDS011;5356;43.526;26.534;2024-02-21T10:26:16;34.42;;;15.32;;
10617;SDS011;5356;43.526;26.534;2024-02-21T10:28:42;20.63;;;11.82;;
10617;SDS011;5356;43.526;26.534;2024-02-21T10:31:10;21.92;;;11.30;;
10617;SDS011;5356;43.526;26.534;2024-02-21T10:33:37;21.77;;;10.43;;
10617;SDS011;5356;43.526;26.534;2024-02-21T10:36:09;24.00;;;12.18;;
10617;SDS011;5356;43.526;26.534;2024-02-21T10:38:36;20.48;;;11.13;;
10617;SDS011;5356;43.526;26.534;2024-02-21T10:41:03;16.52;;;9.65;;
10617;SDS011;5356;43.526;26.534;2024-02-21T10:43:30;18.13;;;10.43;;
10617;SDS011;5356;43.526;26.534;2024-02-21T10:48:32;17.55;;;10.68;;
10617;SDS011;5356;43.526;26.534;2024-02-21T10:51:07;22.83;;;13.03;;
10617;SDS011;5356;43.526;26.534;2024-02-21T10:53:45;15.10;;;9.77;;
10617;SDS011;5356;43.526;26.534;2024-02-21T10:56:36;24.30;;;14.07;;
10617;SDS011;5356;43.526;26.534;2024-02-21T10:59:05;19.77;;;9.95;;
10617;SDS011;5356;43.526;26.534;2024-02-21T11:01:31;23.75;;;11.02;;
10617;SDS011;5356;43.526;26.534;2024-02-21T11:04:07;15.23;;;10.40;;
10617;SDS011;5356;43.526;26.534;2024-02-21T11:06:34;18.02;;;9.35;;
10617;SDS011;5356;43.526;26.534;2024-02-21T11:09:05;21.10;;;10.15;;
10617;SDS011;5356;43.526;26.534;2024-02-21T11:11:33;14.82;;;8.95;;
10617;SDS011;5356;43.526;26.534;2024-02-21T11:14:09;23.70;;;10.35;;
10617;SDS011;5356;43.526;26.534;2024-02-21T11:16:37;20.42;;;9.65;;
10617;SDS011;5356;43.526;26.534;2024-02-21T11:19:26;16.55;;;12.48;;
10617;SDS011;5356;43.526;26.534;2024-02-21T11:21:51;20.85;;;11.25;;
10617;SDS011;5356;43.526;26.534;2024-02-21T11:24:28;15.15;;;9.30;;
10617;SDS011;5356;43.526;26.534;2024-02-21T11:27:08;19.48;;;8.70;;
10617;SDS011;5356;43.526;26.534;2024-02-21T11:29:39;25.85;;;9.65;;
10617;SDS011;5356;43.526;26.534;2024-02-21T11:32:11;19.38;;;9.82;;
10617;SDS011;5356;43.526;26.534;2024-02-21T11:34:40;40.90;;;16.25;;
10617;SDS011;5356;43.526;26.534;2024-02-21T11:37:15;33.88;;;15.18;;
10617;SDS011;5356;43.526;26.534;2024-02-21T11:39:41;16.65;;;8.60;;
10617;SDS011;5356;43.526;26.534;2024-02-21T11:42:07;13.57;;;7.72;;
10617;SDS011;5356;43.526;26.534;2024-02-21T11:44:34;21.75;;;10.30;;
10617;SDS011;5356;43.526;26.534;2024-02-21T11:47:00;25.90;;;11.50;;
10617;SDS011;5356;43.526;26.534;2024-02-21T11:49:27;21.55;;;10.40;;
10617;SDS011;5356;43.526;26.534;2024-02-21T11:52:00;13.98;;;7.47;;
10617;SDS011;5356;43.526;26.534;2024-02-21T11:54:28;12.05;;;6.75;;
10617;SDS011;5356;43.526;26.534;2024-02-21T11:56:54;13.07;;;8.30;;
10617;SDS011;5356;43.526;26.534;2024-02-21T11:59:19;16.25;;;8.73;;
10617;SDS011;5356;43.526;26.534;2024-02-21T12:01:45;17.33;;;8.57;;
10617;SDS011;5356;43.526;26.534;2024-02-21T12:04:11;14.43;;;8.60;;
10617;SDS011;5356;43.526;26.534;2024-02-21T12:06:37;27.25;;;9.73;;
10617;SDS011;5356;43.526;26.534;2024-02-21T12:09:05;23.13;;;9.20;;
10617;SDS011;5356;43.526;26.534;2024-02-21T12:11:34;17.40;;;8.68;;
10617;SDS011;5356;43.526;26.534;2024-02-21T12:14:00;12.27;;;7.45;;
10617;SDS011;5356;43.526;26.534;2024-02-21T12:16:27;14.73;;;7.88;;
10617;SDS011;5356;43.526;26.534;2024-02-21T12:18:54;14.90;;;8.25;;
10617;SDS011;5356;43.526;26.534;2024-02-21T12:21:25;12.65;;;7.55;;
10617;SDS011;5356;43.526;26.534;2024-02-21T12:24:14;14.80;;;8.40;;
10617;SDS011;5356;43.526;26.534;2024-02-21T12:26:41;18.98;;;10.40;;
10617;SDS011;5356;43.526;26.534;2024-02-21T12:29:07;15.65;;;8.73;;
10617;SDS011;5356;43.526;26.534;2024-02-21T12:31:36;16.02;;;9.25;;
10617;SDS011;5356;43.526;26.534;2024-02-21T12:34:02;14.40;;;8.57;;
10617;SDS011;5356;43.526;26.534;2024-02-21T12:36:29;12.80;;;8.43;;
10617;SDS011;5356;43.526;26.534;2024-02-21T12:38:55;14.73;;;9.13;;
10617;SDS011;5356;43.526;26.534;2024-02-21T12:41:20;12.32;;;6.68;;
10617;SDS011;5356;43.526;26.534;2024-02-21T12:43:46;12.05;;;7.47;;
10617;SDS011;5356;43.526;26.534;2024-02-21T12:46:12;12.57;;;8.05;;
10617;SDS011;5356;43.526;26.534;2024-02-21T12:48:37;17.13;;;8.10;;
10617;SDS011;5356;43.526;26.534;2024-02-21T12:51:03;13.65;;;8.30;;
10617;SDS011;5356;43.526;26.534;2024-02-21T12:53:29;13.25;;;7.35;;
10617;SDS011;5356;43.526;26.534;2024-02-21T12:55:55;12.55;;;7.95;;
10617;SDS011;5356;43.526;26.534;2024-02-21T12:58:21;13.60;;;7.78;;
10617;SDS011;5356;43.526;26.534;2024-02-21T13:00:47;13.88;;;8.20;;
10617;SDS011;5356;43.526;26.534;2024-02-21T13:03:13;12.60;;;7.68;;
10617;SDS011;5356;43.526;26.534;2024-02-21T13:05:39;11.00;;;7.03;;
10617;SDS011;5356;43.526;26.534;2024-02-21T13:08:08;13.45;;;7.38;;
10617;SDS011;5356;43.526;26.534;2024-02-21T13:10:34;12.73;;;6.88;;
10617;SDS011;5356;43.526;26.534;2024-02-21T13:13:00;13.38;;;7.20;;
10617;SDS011;5356;43.526;26.534;2024-02-21T13:15:26;15.85;;;8.50;;
10617;SDS011;5356;43.526;26.534;2024-02-21T13:17:53;22.50;;;12.50;;
10617;SDS011;5356;43.526;26.534;2024-02-21T13:20:19;17.95;;;9.73;;
10617;SDS011;5356;43.526;26.534;2024-02-21T13:22:45;15.82;;;8.23;;
10617;SDS011;5356;43.526;26.534;2024-02-21T13:25:10;15.30;;;8.13;;
10617;SDS011;5356;43.526;26.534;2024-02-21T13:27:36;13.40;;;7.78;;
10617;SDS011;5356;43.526;26.534;2024-02-21T13:30:02;19.17;;;8.88;;
10617;SDS011;5356;43.526;26.534;2024-02-21T13:32:31;15.38;;;8.40;;
10617;SDS011;5356;43.526;26.534;2024-02-21T13:34:57;15.68;;;8.40;;
10617;SDS011;5356;43.526;26.534;2024-02-21T13:37:24;11.45;;;7.28;;
10617;SDS011;5356;43.526;26.534;2024-02-21T13:39:52;15.63;;;8.57;;
10617;SDS011;5356;43.526;26.534;2024-02-21T13:42:17;14.52;;;8.18;;
10617;SDS011;5356;43.526;26.534;2024-02-21T13:44:45;18.30;;;8.50;;
10617;SDS011;5356;43.526;26.534;2024-02-21T13:47:14;13.48;;;7.57;;
10617;SDS011;5356;43.526;26.534;2024-02-21T13:49:40;13.68;;;7.07;;
10617;SDS011;5356;43.526;26.534;2024-02-21T13:52:06;18.27;;;7.85;;
10617;SDS011;5356;43.526;26.534;2024-02-21T13:54:31;11.10;;;7.30;;
10617;SDS011;5356;43.526;26.534;2024-02-21T13:56:57;15.48;;;8.60;;
10617;SDS011;5356;43.526;26.534;2024-02-21T13:59:22;15.90;;;8.30;;
10617;SDS011;5356;43.526;26.534;2024-02-21T14:01:48;14.27;;;10.10;;
10617;SDS011;5356;43.526;26.534;2024-02-21T14:04:13;16.25;;;9.05;;
10617;SDS011;5356;43.526;26.534;2024-02-21T14:06:39;15.88;;;9.35;;
10617;SDS011;5356;43.526;26.534;2024-02-21T14:09:11;13.77;;;8.35;;
10617;SDS011;5356;43.526;26.534;2024-02-21T14:11:37;13.10;;;8.30;;
10617;SDS011;5356;43.526;26.534;2024-02-21T14:14:03;16.70;;;9.35;;
10617;SDS011;5356;43.526;26.534;2024-02-21T14:16:30;14.70;;;8.93;;
10617;SDS011;5356;43.526;26.534;2024-02-21T14:18:55;16.20;;;9.38;;
10617;SDS011;5356;43.526;26.534;2024-02-21T14:21:21;17.92;;;8.68;;
10617;SDS011;5356;43.526;26.534;2024-02-21T14:23:46;16.88;;;9.65;;